createdAt,value
2017-08-28T00:01:04.029Z,7.93
2017-08-28T00:03:30.933Z,7.93
2017-08-28T00:05:57.706Z,8.67
2017-08-28T00:08:24.473Z,7.87
2017-08-28T00:10:51.282Z,8.70
2017-08-28T00:13:18.087Z,8.77
2017-08-28T00:15:44.914Z,7.83
2017-08-28T00:18:11.774Z,9.33
2017-08-28T00:20:38.544Z,8.50
2017-08-28T00:23:05.381Z,8.00
2017-08-28T00:25:32.244Z,9.40
2017-08-28T00:27:59.027Z,7.80
2017-08-28T00:30:25.901Z,9.00
2017-08-28T00:32:52.754Z,7.50
2017-08-28T00:35:19.591Z,8.23
2017-08-28T00:37:46.356Z,8.10
2017-08-28T00:40:13.198Z,9.10
2017-08-28T00:42:40.015Z,7.77
2017-08-28T00:45:06.858Z,8.40
2017-08-28T00:47:33.679Z,7.47
2017-08-28T00:50:00.473Z,9.53
2017-08-28T00:52:27.289Z,7.93
2017-08-28T00:54:54.143Z,7.90
2017-08-28T00:57:20.955Z,7.57
2017-08-28T00:59:47.786Z,7.83
2017-08-28T01:02:14.598Z,9.63
2017-08-28T01:04:41.420Z,8.53
2017-08-28T01:07:08.302Z,8.80
2017-08-28T01:09:35.178Z,7.90
2017-08-28T01:12:02.022Z,7.70
2017-08-28T01:14:28.861Z,9.33
2017-08-28T01:16:55.819Z,8.63
2017-08-28T01:19:22.632Z,8.17
2017-08-28T01:21:49.842Z,8.27
2017-08-28T01:24:16.744Z,8.90
2017-08-28T01:26:43.533Z,7.33
2017-08-28T01:29:10.301Z,8.67
2017-08-28T01:31:37.256Z,7.87
2017-08-28T01:34:04.021Z,8.10
2017-08-28T01:36:30.860Z,9.30
2017-08-28T01:38:57.688Z,7.77
2017-08-28T01:41:24.500Z,8.03
2017-08-28T01:43:51.377Z,7.63
2017-08-28T01:46:18.234Z,8.57
2017-08-28T01:48:45.162Z,8.33
2017-08-28T01:51:11.931Z,9.03
2017-08-28T01:53:38.768Z,8.70
2017-08-28T01:56:05.588Z,8.37
2017-08-28T01:58:32.414Z,8.50
2017-08-28T02:00:59.270Z,8.37
2017-08-28T02:03:26.084Z,8.50
2017-08-28T02:05:52.897Z,11.20
2017-08-28T02:08:19.776Z,8.23
2017-08-28T02:10:46.537Z,8.80
2017-08-28T02:13:13.380Z,8.33
2017-08-28T02:15:40.239Z,8.33
2017-08-28T02:18:07.058Z,10.53
2017-08-28T02:20:33.905Z,7.93
2017-08-28T02:23:00.711Z,8.10
2017-08-28T02:25:27.517Z,8.27
2017-08-28T02:27:54.358Z,9.60
2017-08-28T02:30:21.209Z,8.43
2017-08-28T02:32:48.050Z,7.27
2017-08-28T02:35:14.873Z,9.23
2017-08-28T02:37:41.682Z,9.03
2017-08-28T02:40:08.495Z,9.73
2017-08-28T02:42:35.268Z,7.80
2017-08-28T02:45:02.223Z,8.27
2017-08-28T02:47:28.986Z,8.87
2017-08-28T02:49:55.820Z,9.97
2017-08-28T02:52:22.639Z,12.13
2017-08-28T02:54:49.488Z,10.27
2017-08-28T02:57:16.326Z,10.70
2017-08-28T02:59:43.147Z,8.63
2017-08-28T03:02:10.019Z,8.97
2017-08-28T03:04:36.852Z,8.20
2017-08-28T03:07:03.738Z,8.60
2017-08-28T03:09:30.551Z,8.90
2017-08-28T03:11:57.365Z,7.97
2017-08-28T03:14:24.229Z,9.67
2017-08-28T03:16:51.052Z,8.07
2017-08-28T03:19:17.824Z,9.33
2017-08-28T03:21:44.678Z,8.70
2017-08-28T03:24:11.449Z,9.40
2017-08-28T03:26:38.263Z,9.03
2017-08-28T03:29:05.073Z,9.10
2017-08-28T03:31:31.917Z,8.17
2017-08-28T03:33:58.724Z,8.87
2017-08-28T03:36:25.592Z,11.47
2017-08-28T03:38:52.416Z,8.63
2017-08-28T03:41:19.260Z,9.17
2017-08-28T03:43:46.090Z,11.33
2017-08-28T03:46:12.882Z,8.80
2017-08-28T03:48:39.712Z,9.87
2017-08-28T03:51:06.569Z,9.97
2017-08-28T03:53:33.414Z,9.10
2017-08-28T03:56:00.195Z,9.67
2017-08-28T03:58:27.069Z,10.57
2017-08-28T04:00:53.874Z,11.73
2017-08-28T04:03:20.863Z,10.37
2017-08-28T04:05:47.725Z,11.90
2017-08-28T04:08:14.541Z,10.30
2017-08-28T04:10:41.408Z,10.10
2017-08-28T04:13:08.268Z,9.07
2017-08-28T04:15:35.079Z,10.97
2017-08-28T04:18:01.925Z,10.37
2017-08-28T04:20:29.385Z,9.70
2017-08-28T04:22:56.186Z,12.70
2017-08-28T04:25:23.008Z,11.07
2017-08-28T04:27:49.872Z,13.20
2017-08-28T04:30:16.648Z,13.33
2017-08-28T04:32:43.468Z,9.50
2017-08-28T04:35:10.281Z,8.37
2017-08-28T04:37:37.100Z,13.13
2017-08-28T04:40:03.922Z,7.80
2017-08-28T04:42:30.747Z,8.87
2017-08-28T04:44:57.517Z,8.77
2017-08-28T04:47:24.310Z,7.80
2017-08-28T04:49:51.171Z,11.13
2017-08-28T04:52:18.011Z,8.50
2017-08-28T04:54:44.960Z,9.00
2017-08-28T04:57:11.821Z,9.10
2017-08-28T04:59:38.636Z,8.43
2017-08-28T05:02:05.482Z,7.80
2017-08-28T05:04:32.363Z,7.00
2017-08-28T05:06:59.202Z,9.20
2017-08-28T05:09:26.043Z,8.30
2017-08-28T05:11:52.914Z,11.80
2017-08-28T05:14:19.714Z,8.20
2017-08-28T05:16:46.514Z,8.90
2017-08-28T05:19:13.378Z,9.10
2017-08-28T05:21:40.211Z,10.80
2017-08-28T05:24:06.983Z,9.80
2017-08-28T05:26:33.857Z,12.27
2017-08-28T05:29:00.670Z,11.30
2017-08-28T05:31:27.449Z,11.17
2017-08-28T05:33:54.286Z,11.67
2017-08-28T05:36:21.216Z,13.93
2017-08-28T05:38:48.029Z,10.20
2017-08-28T05:41:15.714Z,11.00
2017-08-28T05:43:42.618Z,11.10
2017-08-28T05:46:09.473Z,12.47
2017-08-28T05:48:36.292Z,13.10
2017-08-28T05:51:03.116Z,10.77
2017-08-28T05:53:29.938Z,12.87
2017-08-28T05:55:56.930Z,12.57
2017-08-28T05:58:23.737Z,10.70
2017-08-28T06:00:50.510Z,11.90
2017-08-28T06:03:18.204Z,12.57
2017-08-28T06:05:45.013Z,13.23
2017-08-28T06:08:11.833Z,11.73
2017-08-28T06:10:38.806Z,10.43
2017-08-28T06:13:05.648Z,9.47
2017-08-28T06:15:32.425Z,11.70
2017-08-28T06:17:59.305Z,13.13
2017-08-28T06:20:26.179Z,9.63
2017-08-28T06:22:53.010Z,10.30
2017-08-28T06:25:19.858Z,11.73
2017-08-28T06:27:46.704Z,9.80
2017-08-28T06:30:13.497Z,11.20
2017-08-28T06:32:40.489Z,9.33
2017-08-28T06:35:07.328Z,9.40
2017-08-28T06:37:34.151Z,10.23
2017-08-28T06:40:00.968Z,10.13
2017-08-28T06:42:27.814Z,13.27
2017-08-28T06:44:54.656Z,10.67
2017-08-28T06:47:21.508Z,8.83
2017-08-28T06:49:48.281Z,9.17
2017-08-28T06:52:15.123Z,11.33
2017-08-28T06:54:41.966Z,10.57
2017-08-28T06:57:08.774Z,11.93
2017-08-28T06:59:35.585Z,12.00
2017-08-28T07:02:02.434Z,9.90
2017-08-28T07:04:29.334Z,11.03
2017-08-28T07:06:56.179Z,9.17
2017-08-28T07:09:22.989Z,9.17
2017-08-28T07:11:49.822Z,8.80
2017-08-28T07:14:16.697Z,9.43
2017-08-28T07:16:43.538Z,9.53
2017-08-28T07:19:10.310Z,9.53
2017-08-28T07:21:37.905Z,9.10
2017-08-28T07:24:04.768Z,12.57
2017-08-28T07:26:31.537Z,9.20
2017-08-28T07:28:58.368Z,8.63
2017-08-28T07:31:25.206Z,9.93
2017-08-28T07:33:52.006Z,8.80
2017-08-28T07:36:18.824Z,9.30
2017-08-28T07:38:45.695Z,8.20
2017-08-28T07:41:12.471Z,7.70
2017-08-28T07:43:39.241Z,7.20
2017-08-28T07:46:06.751Z,7.57
2017-08-28T07:48:34.130Z,9.97
2017-08-28T07:51:00.942Z,7.40
2017-08-28T07:53:27.777Z,7.70
2017-08-28T07:55:54.655Z,8.67
2017-08-28T07:58:21.472Z,7.30
2017-08-28T08:00:48.271Z,7.67
2017-08-28T08:03:15.070Z,6.33
2017-08-28T08:05:41.913Z,6.37
2017-08-28T08:08:08.755Z,6.80
2017-08-28T08:10:35.522Z,6.50
2017-08-28T08:13:02.294Z,7.83
2017-08-28T08:15:29.149Z,7.30
2017-08-28T08:17:55.983Z,7.60
2017-08-28T08:20:22.821Z,6.67
2017-08-28T08:22:49.635Z,6.67
2017-08-28T08:25:16.478Z,6.23
2017-08-28T08:27:43.282Z,6.70
2017-08-28T08:30:10.176Z,6.43
2017-08-28T08:32:36.987Z,6.10
2017-08-28T08:35:03.823Z,6.33
2017-08-28T08:37:30.680Z,6.03
2017-08-28T08:39:57.516Z,6.03
2017-08-28T08:42:24.319Z,7.63
2017-08-28T08:44:51.161Z,6.67
2017-08-28T08:47:17.997Z,7.33
2017-08-28T08:49:44.770Z,7.07
2017-08-28T08:52:11.632Z,7.03
2017-08-28T08:54:38.481Z,8.30
2017-08-28T08:57:05.325Z,7.23
2017-08-28T08:59:32.134Z,6.50
2017-08-28T09:01:58.922Z,6.90
2017-08-28T09:04:25.725Z,7.30
2017-08-28T09:06:52.544Z,7.90
2017-08-28T09:09:19.356Z,6.70
2017-08-28T09:11:46.129Z,6.70
2017-08-28T09:14:13.008Z,6.60
2017-08-28T09:16:39.924Z,6.77
2017-08-28T09:19:06.699Z,6.93
2017-08-28T09:21:33.571Z,7.03
2017-08-28T09:24:00.398Z,7.50
2017-08-28T09:26:27.231Z,6.90
2017-08-28T09:28:54.089Z,6.80
2017-08-28T09:31:20.983Z,7.10
2017-08-28T09:33:47.931Z,6.83
2017-08-28T09:36:14.768Z,6.87
2017-08-28T09:38:41.614Z,6.87
2017-08-28T09:41:08.416Z,6.37
2017-08-28T09:43:36.181Z,7.30
2017-08-28T09:46:02.953Z,7.03
2017-08-28T09:48:29.725Z,7.30
2017-08-28T09:50:56.568Z,7.00
2017-08-28T09:53:23.381Z,6.70
2017-08-28T09:55:50.168Z,6.50
2017-08-28T09:58:16.974Z,6.70
2017-08-28T10:00:43.783Z,7.50
2017-08-28T10:03:10.608Z,7.23
2017-08-28T10:05:37.490Z,6.70
2017-08-28T10:08:04.261Z,7.43
2017-08-28T10:10:31.082Z,9.10
2017-08-28T10:12:57.972Z,6.47
2017-08-28T10:15:24.767Z,7.07
2017-08-28T10:17:51.704Z,6.53
2017-08-28T10:20:18.568Z,6.00
2017-08-28T10:22:45.408Z,7.37
2017-08-28T10:25:12.246Z,7.50
2017-08-28T10:27:39.171Z,6.60
2017-08-28T10:30:06.019Z,6.63
2017-08-28T10:32:32.833Z,7.07
2017-08-28T10:34:59.695Z,6.80
2017-08-28T10:37:26.473Z,6.43
2017-08-28T10:39:53.291Z,6.80
2017-08-28T10:42:20.147Z,6.60
2017-08-28T10:44:46.956Z,6.80
2017-08-28T10:47:13.733Z,7.27
2017-08-28T10:49:40.608Z,6.97
2017-08-28T10:52:07.382Z,6.83
2017-08-28T10:54:34.325Z,6.23
2017-08-28T10:57:01.275Z,6.60
2017-08-28T10:59:28.222Z,7.33
2017-08-28T11:01:55.060Z,7.53
2017-08-28T11:04:21.871Z,6.80
2017-08-28T11:06:48.711Z,7.03
2017-08-28T11:09:15.514Z,7.30
2017-08-28T11:11:42.345Z,7.27
2017-08-28T11:14:09.158Z,8.00
2017-08-28T11:16:36.633Z,7.00
2017-08-28T11:19:03.503Z,6.30
2017-08-28T11:21:30.288Z,7.03
2017-08-28T11:23:57.123Z,7.00
2017-08-28T11:26:23.978Z,6.53
2017-08-28T11:28:50.807Z,7.17
2017-08-28T11:31:17.575Z,7.17
2017-08-28T11:33:44.397Z,7.13
2017-08-28T11:36:11.169Z,7.40
2017-08-28T11:38:37.989Z,7.03
2017-08-28T11:41:04.848Z,7.27
2017-08-28T11:43:31.695Z,7.60
2017-08-28T11:45:58.512Z,6.83
2017-08-28T11:48:25.333Z,6.73
2017-08-28T11:50:52.143Z,6.67
2017-08-28T11:53:18.982Z,6.87
2017-08-28T11:55:45.892Z,6.93
2017-08-28T11:58:12.697Z,6.10
2017-08-28T12:00:39.466Z,7.70
2017-08-28T12:03:06.273Z,7.57
2017-08-28T12:05:33.088Z,6.70
2017-08-28T12:07:59.905Z,7.43
2017-08-28T12:10:26.772Z,7.00
2017-08-28T12:12:53.574Z,7.60
2017-08-28T12:15:20.390Z,7.47
2017-08-28T12:17:47.381Z,7.83
2017-08-28T12:20:14.217Z,7.07
2017-08-28T12:22:40.989Z,7.07
2017-08-28T12:25:07.848Z,7.30
2017-08-28T12:27:34.673Z,7.93
2017-08-28T12:30:01.487Z,6.97
2017-08-28T12:32:28.325Z,8.10
2017-08-28T12:34:55.141Z,9.70
2017-08-28T12:37:22.013Z,18.43
2017-08-28T12:39:48.894Z,14.27
2017-08-28T12:42:15.669Z,14.53
2017-08-28T12:44:42.630Z,10.43
2017-08-28T12:47:09.443Z,10.33
2017-08-28T12:49:36.225Z,9.57
2017-08-28T12:52:03.047Z,10.43
2017-08-28T12:54:29.921Z,10.90
2017-08-28T12:56:56.742Z,10.00
2017-08-28T12:59:23.620Z,10.40
2017-08-28T13:01:50.519Z,10.83
2017-08-28T13:04:17.365Z,11.57
2017-08-28T13:06:44.211Z,12.37
2017-08-28T13:09:11.066Z,12.53
2017-08-28T13:11:37.890Z,12.23
2017-08-28T13:14:04.698Z,11.50
2017-08-28T13:16:31.570Z,15.10
2017-08-28T13:18:58.390Z,12.90
2017-08-28T13:21:25.234Z,13.60
2017-08-28T13:23:52.131Z,12.03
2017-08-28T13:26:18.922Z,13.93
2017-08-28T13:28:45.726Z,12.30
2017-08-28T13:31:12.615Z,12.33
2017-08-28T13:33:39.440Z,11.57
2017-08-28T13:36:06.261Z,13.53
2017-08-28T13:38:33.065Z,13.10
2017-08-28T13:40:59.845Z,12.13
2017-08-28T13:43:26.682Z,11.87
2017-08-28T13:45:53.839Z,11.93
2017-08-28T13:48:20.676Z,11.40
2017-08-28T13:50:47.526Z,13.40
2017-08-28T13:53:14.416Z,14.93
2017-08-28T13:55:41.230Z,11.70
2017-08-28T13:58:08.042Z,13.63
2017-08-28T14:00:34.928Z,12.80
2017-08-28T14:03:01.783Z,11.53
2017-08-28T14:05:28.618Z,12.20
2017-08-28T14:08:01.208Z,12.30
2017-08-28T14:10:28.048Z,12.37
2017-08-28T14:12:54.889Z,13.00
2017-08-28T14:15:21.791Z,14.87
2017-08-28T14:17:48.605Z,12.30
2017-08-28T14:20:15.386Z,12.17
2017-08-28T14:22:42.363Z,11.73
2017-08-28T14:25:09.213Z,12.10
2017-08-28T14:27:36.070Z,11.23
2017-08-28T14:30:02.968Z,11.77
2017-08-28T14:32:29.832Z,10.73
2017-08-28T14:34:56.608Z,11.43
2017-08-28T14:37:23.479Z,13.43
2017-08-28T14:39:50.317Z,11.90
2017-08-28T14:42:17.131Z,11.27
2017-08-28T14:44:44.004Z,11.73
2017-08-28T14:47:10.865Z,12.27
2017-08-28T14:49:37.723Z,12.73
2017-08-28T14:52:04.537Z,11.03
2017-08-28T14:54:31.348Z,13.13
2017-08-28T14:56:58.126Z,11.90
2017-08-28T14:59:25.101Z,11.83
2017-08-28T15:01:51.897Z,11.13
2017-08-28T15:04:18.784Z,12.10
2017-08-28T15:06:45.727Z,11.50
2017-08-28T15:09:13.520Z,11.90
2017-08-28T15:11:40.342Z,11.40
2017-08-28T15:14:07.202Z,12.00
2017-08-28T15:16:34.018Z,11.17
2017-08-28T15:19:00.867Z,12.40
2017-08-28T15:21:27.743Z,15.43
2017-08-28T15:23:54.587Z,12.77
2017-08-28T15:26:21.434Z,12.80
2017-08-28T15:28:48.312Z,11.63
2017-08-28T15:31:15.159Z,12.03
2017-08-28T15:33:41.951Z,13.60
2017-08-28T15:36:08.810Z,11.97
2017-08-28T15:38:35.587Z,12.97
2017-08-28T15:41:02.393Z,11.50
2017-08-28T15:43:29.283Z,12.33
2017-08-28T15:45:56.094Z,13.93
2017-08-28T15:48:22.917Z,12.27
2017-08-28T15:50:49.911Z,12.43
2017-08-28T15:53:16.701Z,12.40
2017-08-28T15:55:43.521Z,11.43
2017-08-28T15:58:10.406Z,11.90
2017-08-28T16:00:37.202Z,11.97
2017-08-28T16:03:04.064Z,11.63
2017-08-28T16:05:30.963Z,12.37
2017-08-28T16:07:57.857Z,11.13
2017-08-28T16:10:24.710Z,10.87
2017-08-28T16:12:51.624Z,11.53
2017-08-28T16:15:18.409Z,10.80
2017-08-28T16:17:45.189Z,11.40
2017-08-28T16:20:12.124Z,14.43
2017-08-28T16:22:38.932Z,12.90
2017-08-28T16:25:05.783Z,10.70
2017-08-28T16:27:32.666Z,11.93
2017-08-28T16:29:59.530Z,11.33
2017-08-28T16:32:26.404Z,11.37
2017-08-28T16:34:53.283Z,11.43
2017-08-28T16:37:20.136Z,11.27
2017-08-28T16:39:47.279Z,11.93
2017-08-28T16:42:14.161Z,13.67
2017-08-28T16:44:40.994Z,11.43
2017-08-28T16:47:07.773Z,10.70
2017-08-28T16:49:34.664Z,11.37
2017-08-28T16:52:01.468Z,15.17
2017-08-28T16:54:28.308Z,14.60
2017-08-28T16:56:55.137Z,11.27
2017-08-28T16:59:21.919Z,12.37
2017-08-28T17:01:48.767Z,10.93
2017-08-28T17:04:15.662Z,11.67
2017-08-28T17:06:42.506Z,13.97
2017-08-28T17:09:09.350Z,13.03
2017-08-28T17:11:36.169Z,13.00
2017-08-28T17:14:02.982Z,20.97
2017-08-28T17:16:29.793Z,14.87
2017-08-28T17:18:56.682Z,15.73
2017-08-28T17:21:31.705Z,12.07
2017-08-28T17:23:58.613Z,14.03
2017-08-28T17:26:25.519Z,13.33
2017-08-28T17:28:52.404Z,15.77
2017-08-28T17:31:19.292Z,15.63
2017-08-28T17:33:46.141Z,13.13
2017-08-28T17:36:13.003Z,13.60
2017-08-28T17:38:40.074Z,14.93
2017-08-28T17:41:06.950Z,20.67
2017-08-28T17:43:33.826Z,19.23
2017-08-28T17:46:00.697Z,27.93
2017-08-28T17:48:28.139Z,21.93
2017-08-28T17:50:54.970Z,31.20
2017-08-28T17:53:21.895Z,18.90
2017-08-28T17:55:48.732Z,19.63
2017-08-28T17:58:15.624Z,18.97
2017-08-28T18:00:42.560Z,18.77
2017-08-28T18:03:09.440Z,14.57
2017-08-28T18:05:36.332Z,16.73
2017-08-28T18:08:03.250Z,14.47
2017-08-28T18:10:30.107Z,14.63
2017-08-28T18:12:56.971Z,12.77
2017-08-28T18:15:24.731Z,13.13
2017-08-28T18:17:51.590Z,11.57
2017-08-28T18:20:18.456Z,12.13
2017-08-28T18:22:45.375Z,11.90
2017-08-28T18:25:12.233Z,10.90
2017-08-28T18:27:39.099Z,10.77
2017-08-28T18:30:05.964Z,11.90
2017-08-28T18:32:32.849Z,11.03
2017-08-28T18:34:59.678Z,10.37
2017-08-28T18:37:26.598Z,11.33
2017-08-28T18:39:53.442Z,8.60
2017-08-28T18:42:20.335Z,8.60
2017-08-28T18:44:47.260Z,11.73
2017-08-28T18:47:14.145Z,9.10
2017-08-28T18:49:41.010Z,10.90
2017-08-28T18:52:08.001Z,8.83
2017-08-28T18:54:34.816Z,9.23
2017-08-28T18:57:02.463Z,9.20
2017-08-28T18:59:29.572Z,10.27
2017-08-28T19:01:56.473Z,12.60
2017-08-28T19:04:23.317Z,11.70
2017-08-28T19:06:50.228Z,10.83
2017-08-28T19:09:17.097Z,10.47
2017-08-28T19:11:43.927Z,8.83
2017-08-28T19:14:10.855Z,9.63
2017-08-28T19:16:37.689Z,8.73
2017-08-28T19:19:04.596Z,8.60
2017-08-28T19:21:31.519Z,9.40
2017-08-28T19:23:58.389Z,8.60
2017-08-28T19:26:25.269Z,8.80
2017-08-28T19:28:52.196Z,8.33
2017-08-28T19:31:19.053Z,8.57
2017-08-28T19:33:50.944Z,9.70
2017-08-28T19:36:17.832Z,9.00
2017-08-28T19:38:44.679Z,12.53
2017-08-28T19:41:11.549Z,13.40
2017-08-28T19:43:38.451Z,11.17
2017-08-28T19:46:05.339Z,11.43
2017-08-28T19:48:32.226Z,12.50
2017-08-28T19:50:59.111Z,13.70
2017-08-28T19:53:25.927Z,11.80
2017-08-28T19:55:52.776Z,10.90
2017-08-28T19:58:19.672Z,11.07
2017-08-28T20:00:46.491Z,13.10
2017-08-28T20:03:13.386Z,9.60
2017-08-28T20:05:40.251Z,12.90
2017-08-28T20:08:07.116Z,9.40
2017-08-28T20:10:33.999Z,9.43
2017-08-28T20:13:00.901Z,10.63
2017-08-28T20:15:27.745Z,11.57
2017-08-28T20:17:54.642Z,11.90
2017-08-28T20:20:22.203Z,13.60
2017-08-28T20:22:49.051Z,12.53
2017-08-28T20:25:15.863Z,13.27
2017-08-28T20:27:42.773Z,12.37
2017-08-28T20:30:09.652Z,13.20
2017-08-28T20:32:36.462Z,10.83
2017-08-28T20:35:03.349Z,11.03
2017-08-28T20:37:30.201Z,11.40
2017-08-28T20:39:57.146Z,10.73
2017-08-28T20:42:24.080Z,10.47
2017-08-28T20:44:50.921Z,11.00
2017-08-28T20:47:17.802Z,10.23
2017-08-28T20:49:44.675Z,10.57
2017-08-28T20:52:11.534Z,10.37
2017-08-28T20:54:38.417Z,10.00
2017-08-28T20:57:05.300Z,10.27
2017-08-28T20:59:32.148Z,11.27
2017-08-28T21:01:59.006Z,9.60
2017-08-28T21:04:25.923Z,8.70
2017-08-28T21:06:52.753Z,10.30
2017-08-28T21:09:19.759Z,10.70
2017-08-28T21:11:46.626Z,9.13
2017-08-28T21:14:13.508Z,10.77
2017-08-28T21:16:40.319Z,11.10
2017-08-28T21:19:07.226Z,9.80
2017-08-28T21:21:34.108Z,11.33
2017-08-28T21:24:01.859Z,11.93
2017-08-28T21:26:28.706Z,11.20
2017-08-28T21:28:55.535Z,12.27
2017-08-28T21:31:22.465Z,13.40
2017-08-28T21:33:49.378Z,13.50
2017-08-28T21:36:16.237Z,12.47
2017-08-28T21:38:43.197Z,11.43
2017-08-28T21:41:10.097Z,12.50
2017-08-28T21:43:36.980Z,12.90
2017-08-28T21:46:03.808Z,11.73
2017-08-28T21:48:30.790Z,10.97
2017-08-28T21:50:57.684Z,10.17
2017-08-28T21:53:24.588Z,11.63
2017-08-28T21:55:51.511Z,11.00
2017-08-28T21:58:18.368Z,11.00
2017-08-28T22:00:45.252Z,14.17
2017-08-28T22:03:12.165Z,13.80
2017-08-28T22:05:38.999Z,11.70
2017-08-28T22:08:05.880Z,12.00
2017-08-28T22:10:32.781Z,11.23
2017-08-28T22:12:59.626Z,10.50
2017-08-28T22:15:26.497Z,11.20
2017-08-28T22:17:53.408Z,11.13
2017-08-28T22:20:20.261Z,11.50
2017-08-28T22:22:47.126Z,11.13
2017-08-28T22:25:13.987Z,12.20
2017-08-28T22:27:40.803Z,11.00
2017-08-28T22:30:07.685Z,12.07
2017-08-28T22:32:34.573Z,12.53
2017-08-28T22:35:01.435Z,11.97
2017-08-28T22:37:28.290Z,11.60
2017-08-28T22:39:55.204Z,12.20
2017-08-28T22:42:22.018Z,11.70
2017-08-28T22:44:48.831Z,12.17
2017-08-28T22:47:15.792Z,11.77
2017-08-28T22:49:42.664Z,12.13
2017-08-28T22:52:09.583Z,12.50
2017-08-28T22:54:36.507Z,11.50
2017-08-28T22:57:03.319Z,11.70
2017-08-28T22:59:30.208Z,10.63
2017-08-28T23:01:57.110Z,11.77
2017-08-28T23:04:24.002Z,12.03
2017-08-28T23:06:50.876Z,12.97
2017-08-28T23:09:17.779Z,12.27
2017-08-28T23:11:44.671Z,12.40
2017-08-28T23:14:11.533Z,12.00
2017-08-28T23:16:38.459Z,12.23
2017-08-28T23:19:05.279Z,11.93
2017-08-28T23:21:32.203Z,11.77
2017-08-28T23:23:59.093Z,12.33
2017-08-28T23:26:25.984Z,11.30
2017-08-28T23:28:52.847Z,11.43
2017-08-28T23:31:19.691Z,11.17
2017-08-28T23:33:46.579Z,10.70
2017-08-28T23:36:13.442Z,12.20
2017-08-28T23:38:41.259Z,11.33
2017-08-28T23:41:08.165Z,11.03
2017-08-28T23:43:34.979Z,10.87
2017-08-28T23:46:01.952Z,11.10
2017-08-28T23:48:28.832Z,10.20
2017-08-28T23:50:55.703Z,10.97
2017-08-28T23:53:22.551Z,11.17
2017-08-28T23:55:49.360Z,10.00
2017-08-28T23:58:16.207Z,10.70
